Nearby METAR Reports

Actuele Vliegveldwaarnemingen NL (METAR).Zie KNMI uitleg METAR hier

EHAM - Amsterdam/Schiph, Netherlands
Distance from station: ONO 18km
Updated: 29/09/2023 14:55
Meestal bewolkt
Meestal bewolkt
 Wind van NW
Wind: NW 31 km/h
Temperatuur: 18°C
Dauwpunt: 15°C
Vochtigheid: 83%
Barometer: 1016 hPa
Clouds: Meestal bewolkt
Visibility: 10 km
Cloud details: Few Clouds 488 m
Meestal bewolkt 823 m
2023/09/29 12:55 EHAM 291255Z 31017KT 9999 FEW016 BKN027 18/15 Q1016 NOSIG
EHKD - DE KOOY/DE KOOY
Updated: 29/09/2023 14:57
Meestal bewolkt
Meestal bewolkt
 Wind van WNW
Wind: WNW 26 km/h
Temperatuur: 18°C
Dauwpunt: 14°C
Vochtigheid: 78%
Barometer: 1016 hPa
Clouds: Meestal bewolkt
Visibility: 10 km
Cloud details: Few Clouds 518 m
Meestal bewolkt 640 m
2023/09/29 12:57 EHKD 291257Z AUTO 30014KT 250V340 9999 FEW017 BKN021 18/14 Q1016 WHT NOSIG
 
EHLW - LEEUWARDEN/LEEUWARDEN
Updated: 29/09/2023 14:55
Meestal bewolkt
Meestal bewolkt
 Wind van NW
Wind: NW 28 km/h
Temperatuur: 17°C
Dauwpunt: 15°C
Vochtigheid: 88%
Barometer: 1015 hPa
Clouds: Meestal bewolkt
Visibility: 10 km
Cloud details: Few Clouds 305 m
Gedeeltelijk bewolkt 396 m
Meestal bewolkt 853 m
2023/09/29 12:55 EHLW 291255Z AUTO 32015KT 260V350 9999 FEW010 SCT013 BKN028 17/15 Q1015 GRN BECMG SCT015
EHVK - VOLKEL/VOLKEL
Updated: 29/09/2023 14:55
Lichte regen, Showers, Few clouds
Lichte regen, Showers, Few clouds
 Wind van WNW
Wind: WNW 17 km/h
Temperatuur: 19°C
Dauwpunt: 17°C
Vochtigheid: 88%
Barometer: 1016 hPa
Overzicht: Lichte regen, Showers
Clouds: Few Clouds
Visibility: 10 km
Cloud details: Few Clouds 274 m
Meestal bewolkt 335 m
Meestal bewolkt 396 m
Few Clouds 457 m
2023/09/29 12:55 EHVK 291255Z AUTO 29009KT 240V320 9999 -SHRA FEW009 BKN011 BKN013 FEW015CB 19/17 Q1016 RERA REDZ GRN TEMPO 4500 SHRA SCT010 BKN015
 
EHFS - VLISSINGEN
Updated: 29/09/2023 14:55
Zwaar bewolkt
Zwaar bewolkt
 Wind van WNW
Wind: WNW 20 km/h
Temperatuur: 18°C
Dauwpunt: 14°C
Vochtigheid: 78%
Barometer: 1019 hPa
Clouds: Zwaar bewolkt
Visibility: 10 km
Cloud details: Gedeeltelijk bewolkt 579 m
Zwaar bewolkt 671 m
2023/09/29 12:55 EHFS 291255Z AUTO 29011KT 260V330 9999 SCT019/// OVC022/// 18/14 Q1019
EHEH - EINDHOVEN/EINDHOVEN
Updated: 29/09/2023 14:55
Few Clouds
Few Clouds
 Wind van W
Wind: W 15 km/h
Temperatuur: 19°C
Dauwpunt: 18°C
Vochtigheid: 94%
Barometer: 1017 hPa
Clouds: Few Clouds
Visibility: 10 km
Cloud details: Few Clouds 213 m
Gedeeltelijk bewolkt 274 m
Meestal bewolkt 305 m
Few Clouds 457 m
2023/09/29 12:55 EHEH 291255Z AUTO 28008KT 230V340 9999 FEW007 SCT009 BKN010 FEW015CB 19/18 Q1017 RERA REDZ GRN TEMPO 30012G22KT 4000 SHRA RADZ SCT006 BKN010 SCT015CB
 
EHGR - GILZE-RIJEN/GILZE-RIJEN
Updated: 29/09/2023 14:56
Zwaar bewolkt
Zwaar bewolkt
 Wind van WNW
Wind: WNW 20 km/h
Temperatuur: 18°C
Dauwpunt: 16°C
Vochtigheid: 88%
Barometer: 1017 hPa
Clouds: Zwaar bewolkt
Visibility: 10 km
Cloud details: Few Clouds 427 m
Zwaar bewolkt 610 m
2023/09/29 12:56 EHGR 291256Z AUTO 30011KT 260V350 9999 FEW014 OVC020 18/16 Q1017 WHT BECMG BKN016
EHDL - ARNHEM/DEELEN
Updated: 29/09/2023 14:55
Lichte regen, Drizzle, Few clouds
Lichte regen, Drizzle, Few clouds
 Wind van WNW
Wind: WNW 26 km/h
Temperatuur: 18°C
Dauwpunt: 17°C
Vochtigheid: 94%
Barometer: 1016 hPa
Overzicht: Lichte regen, Drizzle
Clouds: Few Clouds
Visibility: 10 km
Cloud details: Few Clouds 183 m
Meestal bewolkt 213 m
Meestal bewolkt 305 m
Few Clouds 457 m
2023/09/29 12:55 EHDL 291255Z AUTO 29014KT 210V020 9999 -RADZ FEW006 BKN007 BKN010 FEW015CB 18/17 Q1016 GRN
 
EHBK - MAASTRICHT/MAASTRICHT-AACHEN
Updated: 29/09/2023 14:55
Meestal bewolkt
Meestal bewolkt
 Wind van ZW
Wind: ZW 26 km/h
Temperatuur: 21°C
Dauwpunt: 18°C
Vochtigheid: 83%
Barometer: 1017 hPa
Clouds: Meestal bewolkt
Visibility: 10 km
Cloud details: Gedeeltelijk bewolkt 396 m
Meestal bewolkt 488 m
Meestal bewolkt 671 m
2023/09/29 12:55 EHBK 291255Z AUTO 23014KT 9999 SCT013 BKN016 BKN022 21/18 Q1017 BECMG 30012KT TEMPO 4000 RADZ BKN007